Time;durP1;ratioP1;P1;durP2;ratioP2;P2;SDS_P1;SDS_P2;PMS_P1;PMS_P2;Temp;Humidity;BMP_temperature;BMP_pressure;BME280_temperature;BME280_humidity;BME280_pressure;Samples;Min_cycle;Max_cycle;Signal;HPM_P1;HPM_P2
2021/06/30 00:02:10;;;;;;;12.50;8.25;;;15.90;99.90;;;;;;5088583;28;20289;-75
2021/06/30 00:04:39;;;;;;;12.73;7.90;;;15.90;99.90;;;;;;5085420;28;20914;-75
2021/06/30 00:07:07;;;;;;;18.95;8.73;;;15.90;99.90;;;;;;5086739;28;20194;-73
2021/06/30 00:09:34;;;;;;;12.38;8.32;;;15.90;99.90;;;;;;5083497;28;20209;-75
2021/06/30 00:12:01;;;;;;;17.35;8.57;;;15.90;99.90;;;;;;5085467;28;20201;-76
2021/06/30 00:14:28;;;;;;;12.13;7.60;;;15.90;99.90;;;;;;5083028;28;20202;-76
2021/06/30 00:16:55;;;;;;;13.32;7.38;;;15.80;99.90;;;;;;5084485;28;20238;-76
2021/06/30 00:30:29;;;;;;;15.48;7.47;;;15.70;99.90;;;;;;4990221;28;20212;-74
2021/06/30 00:32:57;;;;;;;13.73;7.70;;;15.70;99.90;;;;;;4989821;28;20213;-74
2021/06/30 00:35:24;;;;;;;15.18;8.23;;;15.70;99.90;;;;;;4993007;28;20251;-75
2021/06/30 00:37:51;;;;;;;12.40;8.15;;;15.70;99.90;;;;;;4987691;28;20233;-75
2021/06/30 00:40:17;;;;;;;20.77;8.57;;;15.70;99.90;;;;;;4991259;28;20220;-75
2021/06/30 00:42:44;;;;;;;14.63;8.73;;;15.60;99.90;;;;;;4972580;28;20291;-76
2021/06/30 00:45:16;;;;;;;12.68;8.57;;;15.60;99.90;;;;;;4973655;28;20250;-76
2021/06/30 00:47:44;;;;;;;14.93;8.20;;;15.70;99.90;;;;;;4970535;28;20573;-75
2021/06/30 00:50:13;;;;;;;21.30;9.10;;;15.70;99.90;;;;;;4989848;28;20279;-75
2021/06/30 00:52:40;;;;;;;14.20;9.10;;;15.70;99.90;;;;;;4985789;28;20201;-75
2021/06/30 00:55:07;;;;;;;23.92;8.93;;;15.70;99.90;;;;;;4986107;28;21057;-75
2021/06/30 00:57:34;;;;;;;14.77;8.95;;;15.60;99.90;;;;;;4988526;28;20229;-74
2021/06/30 01:00:01;;;;;;;16.40;8.05;;;15.60;99.90;;;;;;4959377;28;20611;-74
2021/06/30 01:02:28;;;;;;;12.23;8.20;;;15.60;99.90;;;;;;4944745;28;21614;-73
2021/06/30 01:04:56;;;;;;;18.05;9.75;;;15.60;99.90;;;;;;5010256;28;20216;-74
2021/06/30 01:07:23;;;;;;;22.20;9.68;;;15.60;99.90;;;;;;5031906;28;20279;-73
2021/06/30 01:09:50;;;;;;;15.38;8.73;;;15.60;99.90;;;;;;5088679;28;20201;-74
2021/06/30 01:12:17;;;;;;;13.23;8.27;;;15.60;99.90;;;;;;5086967;28;20626;-74
2021/06/30 01:14:43;;;;;;;14.38;8.98;;;15.60;99.90;;;;;;5092647;28;20205;-74
2021/06/30 01:17:11;;;;;;;12.43;8.35;;;15.70;99.90;;;;;;5088469;28;20778;-73
2021/06/30 01:19:38;;;;;;;27.23;8.52;;;15.60;99.90;;;;;;5086800;28;20202;-72
2021/06/30 01:22:07;;;;;;;17.02;8.23;;;15.60;99.90;;;;;;5080890;28;20202;-72
2021/06/30 01:24:36;;;;;;;25.13;8.73;;;15.60;99.90;;;;;;5081239;28;20592;-74
2021/06/30 01:27:04;;;;;;;21.20;8.95;;;15.60;99.90;;;;;;5087801;28;20259;-76
2021/06/30 01:29:31;;;;;;;13.23;8.35;;;15.60;99.90;;;;;;5086360;28;20226;-75
2021/06/30 01:31:58;;;;;;;13.23;8.70;;;15.60;99.90;;;;;;5091454;28;20194;-76
2021/06/30 01:34:25;;;;;;;15.27;8.85;;;15.60;99.90;;;;;;5089704;28;20723;-75
2021/06/30 01:36:53;;;;;;;12.45;8.60;;;15.60;99.90;;;;;;5090664;28;20511;-76
2021/06/30 01:39:21;;;;;;;15.40;8.13;;;15.60;99.90;;;;;;5085116;28;20226;-75
2021/06/30 01:41:50;;;;;;;12.07;8.07;;;15.60;99.90;;;;;;5088024;28;20568;-75
2021/06/30 01:44:17;;;;;;;12.07;7.93;;;15.60;99.90;;;;;;5085232;28;20201;-76
2021/06/30 01:46:44;;;;;;;17.13;8.27;;;15.50;99.90;;;;;;5086024;28;20661;-76
2021/06/30 01:49:12;;;;;;;17.05;8.60;;;15.50;99.90;;;;;;5090902;28;20678;-74
2021/06/30 01:51:39;;;;;;;16.42;8.75;;;15.50;99.90;;;;;;5082707;28;20194;-76
2021/06/30 01:54:11;;;;;;;17.45;8.52;;;15.50;99.90;;;;;;5088130;28;20204;-75
2021/06/30 01:56:38;;;;;;;13.70;8.13;;;15.50;99.90;;;;;;5086862;28;20262;-76
2021/06/30 01:59:09;;;;;;;14.55;9.10;;;15.40;99.90;;;;;;5088708;28;20216;-76
2021/06/30 02:01:36;;;;;;;12.02;9.02;;;15.40;99.90;;;;;;5086103;28;20194;-74
2021/06/30 02:04:04;;;;;;;15.07;9.80;;;15.50;99.90;;;;;;5085387;28;20202;-76
2021/06/30 02:06:38;;;;;;;14.40;9.35;;;15.40;99.90;;;;;;5085014;28;20202;-74
2021/06/30 02:09:06;;;;;;;15.38;9.80;;;15.40;99.90;;;;;;5086852;28;20209;-76
2021/06/30 02:11:33;;;;;;;18.58;9.93;;;15.40;99.90;;;;;;5082565;28;20208;-74
2021/06/30 02:14:00;;;;;;;17.90;10.05;;;15.40;99.90;;;;;;5083686;28;20258;-76
2021/06/30 02:16:28;;;;;;;18.60;10.25;;;15.40;99.90;;;;;;5082132;28;20214;-75
2021/06/30 02:18:55;;;;;;;18.00;11.07;;;15.40;99.90;;;;;;5084578;28;20225;-75
2021/06/30 02:21:22;;;;;;;19.40;11.18;;;15.30;99.90;;;;;;5085923;28;20212;-73
2021/06/30 02:23:49;;;;;;;18.30;11.13;;;15.30;99.90;;;;;;5087852;28;20621;-75
2021/06/30 02:26:16;;;;;;;18.30;10.43;;;15.30;99.90;;;;;;5084303;28;20210;-73
2021/06/30 02:28:43;;;;;;;18.25;9.93;;;15.30;99.90;;;;;;5085681;28;20197;-76
2021/06/30 02:31:10;;;;;;;21.02;10.52;;;15.30;99.90;;;;;;5088097;28;20263;-76
2021/06/30 02:33:39;;;;;;;14.93;9.65;;;15.30;99.90;;;;;;5088406;28;20626;-74
2021/06/30 02:36:05;;;;;;;16.60;10.15;;;15.30;99.90;;;;;;5087135;28;20567;-74
2021/06/30 02:38:32;;;;;;;15.85;10.77;;;15.30;99.90;;;;;;5082502;28;20209;-73
2021/06/30 02:40:59;;;;;;;14.95;9.43;;;15.30;99.90;;;;;;5086828;28;20615;-75
2021/06/30 02:43:26;;;;;;;21.27;9.82;;;15.20;99.90;;;;;;5087023;28;20605;-75
2021/06/30 02:45:53;;;;;;;15.68;9.35;;;15.20;99.90;;;;;;5087249;28;20593;-75
2021/06/30 02:48:20;;;;;;;12.35;9.02;;;15.20;99.90;;;;;;5085979;28;20189;-76
2021/06/30 02:50:48;;;;;;;16.20;9.35;;;15.20;99.90;;;;;;5090128;28;20683;-73
2021/06/30 02:53:16;;;;;;;19.42;9.48;;;15.20;99.90;;;;;;5086130;28;20209;-76
2021/06/30 02:55:43;;;;;;;17.80;9.35;;;15.10;99.90;;;;;;5085893;28;20257;-75
2021/06/30 02:58:09;;;;;;;18.95;8.88;;;15.10;99.90;;;;;;5085142;28;20220;-75
2021/06/30 03:00:36;;;;;;;18.23;8.68;;;15.10;99.90;;;;;;5088761;28;20206;-76
2021/06/30 03:03:03;;;;;;;14.60;8.38;;;15.10;99.90;;;;;;5083570;28;20603;-76
2021/06/30 03:05:30;;;;;;;16.50;8.02;;;15.10;99.90;;;;;;5085948;28;20553;-77
2021/06/30 03:07:59;;;;;;;13.85;8.00;;;15.10;99.90;;;;;;5085491;28;20196;-74
2021/06/30 03:10:25;;;;;;;21.92;7.72;;;15.00;99.90;;;;;;5085689;28;20209;-75
2021/06/30 03:12:52;;;;;;;16.48;7.20;;;15.00;99.90;;;;;;5089371;28;20202;-77
2021/06/30 03:15:19;;;;;;;20.85;7.80;;;15.00;99.90;;;;;;5082700;28;20202;-75
2021/06/30 03:17:46;;;;;;;11.48;7.43;;;15.00;99.90;;;;;;5087511;28;20205;-74
2021/06/30 03:20:15;;;;;;;13.75;8.73;;;15.00;99.90;;;;;;5087974;28;20601;-74
2021/06/30 03:22:43;;;;;;;19.65;9.13;;;15.00;99.90;;;;;;5084306;28;20682;-74
2021/06/30 03:25:13;;;;;;;19.92;8.40;;;15.00;99.90;;;;;;5084295;28;20613;-72
2021/06/30 03:27:41;;;;;;;25.27;8.85;;;15.00;99.90;;;;;;5086445;28;20206;-71
2021/06/30 03:30:10;;;;;;;19.02;9.82;;;15.00;99.90;;;;;;5088761;28;20226;-75
2021/06/30 03:32:39;;;;;;;24.75;10.85;;;15.00;99.90;;;;;;5085264;28;20585;-74
2021/06/30 03:35:08;;;;;;;18.70;10.07;;;15.00;99.90;;;;;;5087973;28;20198;-74
2021/06/30 03:37:34;;;;;;;24.70;10.82;;;15.00;99.90;;;;;;5081110;28;20619;-75
2021/06/30 03:40:01;;;;;;;26.25;10.13;;;15.00;99.90;;;;;;5088503;28;20690;-74
2021/06/30 03:42:30;;;;;;;17.88;10.50;;;15.00;99.90;;;;;;5082711;28;20210;-72
2021/06/30 03:44:57;;;;;;;20.40;11.27;;;15.10;99.90;;;;;;5084262;28;21047;-74
2021/06/30 03:47:23;;;;;;;19.33;11.02;;;15.00;99.90;;;;;;5086953;28;20259;-72
2021/06/30 03:49:50;;;;;;;21.25;11.52;;;15.10;99.90;;;;;;5083688;28;20674;-73
2021/06/30 03:52:17;;;;;;;20.70;11.27;;;15.10;99.90;;;;;;5080487;28;20602;-73
2021/06/30 03:54:44;;;;;;;22.17;11.52;;;15.10;99.90;;;;;;5088700;28;20567;-74
2021/06/30 03:57:11;;;;;;;24.13;11.73;;;15.20;99.90;;;;;;5085612;28;20237;-74
2021/06/30 03:59:39;;;;;;;15.27;10.88;;;15.20;99.90;;;;;;5087386;28;20301;-72
2021/06/30 04:02:06;;;;;;;19.92;10.95;;;15.20;99.90;;;;;;5084389;28;20198;-72
2021/06/30 04:04:33;;;;;;;20.42;10.82;;;15.30;99.90;;;;;;5082512;28;20654;-73
2021/06/30 04:07:03;;;;;;;17.67;10.32;;;15.20;99.90;;;;;;5086706;28;20201;-72
2021/06/30 04:09:30;;;;;;;17.10;10.20;;;15.20;99.90;;;;;;5085015;28;20209;-73
2021/06/30 04:11:57;;;;;;;18.63;10.45;;;15.30;99.90;;;;;;5089291;28;20252;-73
2021/06/30 04:14:24;;;;;;;15.82;9.57;;;15.30;99.90;;;;;;5087150;28;20210;-74
2021/06/30 04:16:53;;;;;;;15.02;9.48;;;15.30;99.90;;;;;;5083381;28;20202;-74
2021/06/30 04:19:21;;;;;;;17.55;9.75;;;15.30;99.90;;;;;;5088158;28;20229;-73
2021/06/30 04:21:47;;;;;;;20.80;9.82;;;15.30;99.90;;;;;;5083430;28;20213;-73
2021/06/30 04:24:14;;;;;;;14.68;9.38;;;15.30;99.90;;;;;;5086477;28;20193;-74
2021/06/30 04:26:42;;;;;;;14.55;9.27;;;15.30;99.90;;;;;;5082143;28;20221;-75
2021/06/30 04:29:10;;;;;;;18.95;9.57;;;15.30;99.90;;;;;;5088970;28;20712;-73
2021/06/30 04:31:36;;;;;;;16.58;8.70;;;15.30;99.90;;;;;;5083974;28;20202;-73
2021/06/30 04:34:05;;;;;;;20.20;10.05;;;15.30;99.90;;;;;;5089174;28;20229;-72
2021/06/30 04:36:32;;;;;;;16.23;9.20;;;15.30;99.90;;;;;;5084046;28;21279;-72
2021/06/30 04:38:59;;;;;;;16.85;9.40;;;15.30;99.90;;;;;;5083534;28;20214;-73
2021/06/30 04:41:25;;;;;;;19.08;9.85;;;15.30;99.90;;;;;;5084125;28;20662;-73
2021/06/30 04:43:52;;;;;;;15.95;8.90;;;15.30;99.90;;;;;;5084723;28;20241;-73
2021/06/30 04:46:19;;;;;;;13.38;8.02;;;15.30;99.90;;;;;;5086493;28;20202;-73
2021/06/30 04:48:46;;;;;;;13.00;8.35;;;15.30;99.90;;;;;;5084749;28;20251;-72
2021/06/30 04:51:14;;;;;;;16.70;9.00;;;15.30;99.90;;;;;;5085483;28;20735;-71
2021/06/30 04:53:43;;;;;;;14.02;8.18;;;15.30;99.90;;;;;;5082540;28;20201;-72
2021/06/30 04:56:10;;;;;;;14.45;8.48;;;15.30;99.90;;;;;;5086392;28;20210;-74
2021/06/30 04:58:37;;;;;;;13.52;8.25;;;15.30;99.90;;;;;;5080587;28;20213;-71
2021/06/30 05:01:03;;;;;;;11.57;7.88;;;15.30;99.90;;;;;;5087836;28;20193;-74
2021/06/30 05:03:30;;;;;;;16.42;8.45;;;15.30;99.90;;;;;;5081862;28;20263;-70
2021/06/30 05:05:57;;;;;;;17.90;8.52;;;15.40;99.90;;;;;;5081592;28;20589;-73
2021/06/30 05:08:25;;;;;;;20.10;8.73;;;15.30;99.90;;;;;;5081280;28;20198;-72
2021/06/30 05:10:52;;;;;;;16.88;8.68;;;15.40;99.90;;;;;;5087133;28;20589;-72
2021/06/30 05:13:20;;;;;;;17.52;8.98;;;15.40;99.90;;;;;;5081832;28;20274;-69
2021/06/30 05:15:46;;;;;;;17.67;9.38;;;15.40;99.90;;;;;;5083131;28;20210;-69
2021/06/30 05:18:13;;;;;;;18.02;9.73;;;15.40;99.90;;;;;;5084040;28;20220;-71
2021/06/30 05:20:40;;;;;;;17.55;11.23;;;15.40;99.90;;;;;;5081704;28;20222;-70
2021/06/30 05:23:07;;;;;;;21.13;10.82;;;15.40;99.90;;;;;;5082051;28;20206;-72
2021/06/30 05:25:35;;;;;;;19.80;10.55;;;15.40;99.90;;;;;;5082261;28;20606;-70
2021/06/30 05:28:02;;;;;;;16.33;10.05;;;15.40;99.90;;;;;;5078127;28;20206;-70
2021/06/30 05:30:29;;;;;;;19.42;10.57;;;15.40;99.90;;;;;;5086953;28;20233;-69
2021/06/30 05:32:56;;;;;;;22.35;10.57;;;15.50;99.90;;;;;;5085184;28;20610;-69
2021/06/30 05:35:23;;;;;;;21.75;11.45;;;15.50;99.90;;;;;;5087624;28;20704;-71
2021/06/30 05:37:50;;;;;;;18.98;11.48;;;15.50;99.90;;;;;;5079677;28;20242;-69
2021/06/30 05:40:17;;;;;;;21.50;11.43;;;15.50;99.90;;;;;;5082035;28;20229;-70
2021/06/30 05:42:45;;;;;;;22.02;11.68;;;15.50;99.90;;;;;;5080422;28;20594;-71
2021/06/30 05:45:15;;;;;;;21.33;11.13;;;15.50;99.90;;;;;;5081151;28;20211;-71
2021/06/30 05:47:43;;;;;;;22.33;10.55;;;15.50;99.90;;;;;;5081326;28;20194;-71
2021/06/30 05:50:11;;;;;;;22.58;10.35;;;15.50;99.90;;;;;;5080256;28;20200;-71
2021/06/30 05:52:38;;;;;;;24.23;10.18;;;15.50;99.90;;;;;;5079739;28;20218;-73
2021/06/30 05:55:07;;;;;;;26.88;10.10;;;15.50;99.90;;;;;;5083044;28;20206;-72
2021/06/30 05:57:34;;;;;;;20.77;10.88;;;15.50;99.90;;;;;;5080559;28;20206;-74
2021/06/30 06:00:05;;;;;;;19.73;10.23;;;15.50;99.90;;;;;;5083234;28;20222;-73
2021/06/30 06:02:34;;;;;;;24.02;9.88;;;15.50;99.90;;;;;;5082805;28;20278;-74
2021/06/30 06:05:01;;;;;;;19.88;10.27;;;15.40;99.90;;;;;;5084233;28;20213;-74
2021/06/30 06:07:28;;;;;;;29.20;10.70;;;15.40;99.90;;;;;;5085383;28;20206;-73
2021/06/30 06:09:55;;;;;;;40.72;11.60;;;15.40;99.90;;;;;;5085660;28;20201;-72
2021/06/30 06:12:22;;;;;;;24.38;12.05;;;15.40;99.90;;;;;;5083134;28;20195;-73
2021/06/30 06:14:49;;;;;;;19.05;10.02;;;15.40;99.90;;;;;;5088322;28;20212;-71
2021/06/30 06:17:17;;;;;;;46.42;11.68;;;15.30;99.90;;;;;;5080502;28;20209;-73
2021/06/30 06:19:44;;;;;;;34.80;11.13;;;15.30;99.90;;;;;;5081032;28;20669;-73
2021/06/30 06:22:10;;;;;;;28.50;11.38;;;15.30;99.90;;;;;;5084188;28;20717;-71
2021/06/30 06:24:38;;;;;;;21.33;10.65;;;15.40;99.90;;;;;;5078833;28;20597;-72
2021/06/30 06:27:06;;;;;;;22.83;11.00;;;15.30;99.90;;;;;;5086721;28;20259;-72
2021/06/30 06:29:33;;;;;;;18.83;10.98;;;15.30;99.90;;;;;;5086236;28;20236;-71
2021/06/30 06:32:01;;;;;;;20.00;11.00;;;15.30;99.90;;;;;;5084703;28;20201;-71
2021/06/30 06:34:29;;;;;;;20.88;11.68;;;15.30;99.90;;;;;;5081181;28;20217;-71
2021/06/30 06:36:59;;;;;;;23.92;12.27;;;15.40;99.90;;;;;;5088731;28;20206;-72
2021/06/30 06:39:27;;;;;;;24.92;12.02;;;15.40;99.90;;;;;;5083032;28;20316;-73
2021/06/30 06:41:54;;;;;;;19.55;12.00;;;15.40;99.90;;;;;;5086391;28;20280;-72
2021/06/30 06:44:21;;;;;;;30.45;11.70;;;15.40;99.90;;;;;;5084939;28;20681;-71
2021/06/30 06:46:49;;;;;;;21.42;11.57;;;15.40;99.90;;;;;;5086137;28;20210;-72
2021/06/30 06:49:15;;;;;;;24.98;12.40;;;15.40;99.90;;;;;;5079860;28;20198;-73
2021/06/30 06:51:44;;;;;;;37.97;12.55;;;15.40;99.90;;;;;;5087351;28;20582;-74
2021/06/30 06:54:10;;;;;;;26.15;12.40;;;15.50;99.90;;;;;;5080599;28;20288;-75
2021/06/30 06:56:37;;;;;;;22.30;12.43;;;15.50;99.90;;;;;;5084581;28;20605;-73
2021/06/30 06:59:04;;;;;;;28.52;12.57;;;15.50;99.90;;;;;;5083356;28;20981;-73
2021/06/30 07:01:31;;;;;;;28.20;13.20;;;15.50;99.90;;;;;;5081294;28;20255;-75
2021/06/30 07:03:58;;;;;;;25.52;13.18;;;15.50;99.90;;;;;;5085808;28;20208;-75
2021/06/30 07:06:25;;;;;;;23.35;11.73;;;15.60;99.90;;;;;;5087978;28;20198;-71
2021/06/30 07:08:53;;;;;;;27.65;11.75;;;15.60;99.90;;;;;;5084677;28;20649;-73
2021/06/30 07:11:21;;;;;;;17.50;10.23;;;15.60;99.90;;;;;;5088693;28;20201;-72
2021/06/30 07:13:48;;;;;;;23.58;11.07;;;15.60;99.90;;;;;;5085838;28;20219;-74
2021/06/30 07:16:15;;;;;;;16.20;10.68;;;15.60;99.90;;;;;;5091894;28;20257;-74
2021/06/30 07:18:42;;;;;;;21.02;10.57;;;15.60;99.90;;;;;;5084849;28;20206;-73
2021/06/30 07:21:10;;;;;;;19.77;10.13;;;15.70;99.90;;;;;;5087165;28;20221;-71
2021/06/30 07:23:37;;;;;;;18.35;10.57;;;15.60;99.90;;;;;;5079711;28;20194;-74
2021/06/30 07:26:06;;;;;;;24.05;10.48;;;15.70;99.90;;;;;;5083892;28;20289;-74
2021/06/30 07:28:33;;;;;;;19.42;10.27;;;15.70;99.90;;;;;;5086388;28;20569;-73
2021/06/30 07:31:00;;;;;;;19.73;10.63;;;15.70;99.90;;;;;;5087755;28;20759;-74
2021/06/30 07:33:27;;;;;;;22.40;10.80;;;15.80;99.90;;;;;;5086589;28;20881;-75
2021/06/30 07:35:53;;;;;;;24.70;10.70;;;15.80;99.90;;;;;;5084516;28;20202;-74
2021/06/30 07:38:20;;;;;;;20.70;11.68;;;15.80;99.90;;;;;;5083423;28;20254;-72
2021/06/30 07:40:47;;;;;;;29.55;12.10;;;15.80;99.90;;;;;;5087419;28;20213;-75
2021/06/30 07:43:16;;;;;;;27.60;12.27;;;15.80;99.90;;;;;;5083523;28;20202;-73
2021/06/30 07:45:42;;;;;;;18.40;9.23;;;15.90;99.90;;;;;;5085588;28;20193;-72
2021/06/30 07:48:09;;;;;;;19.30;9.65;;;15.80;99.90;;;;;;5082829;28;20207;-73
2021/06/30 07:50:36;;;;;;;19.33;10.70;;;15.90;99.90;;;;;;5081144;28;20550;-75
2021/06/30 07:53:03;;;;;;;22.83;11.07;;;15.90;99.90;;;;;;5080646;28;20218;-74
2021/06/30 07:55:31;;;;;;;18.10;10.32;;;15.80;99.90;;;;;;5086931;28;20578;-75
2021/06/30 07:57:58;;;;;;;18.58;10.27;;;15.90;99.90;;;;;;5085949;28;20209;-73
2021/06/30 08:00:27;;;;;;;20.77;9.50;;;15.80;99.90;;;;;;5084158;28;20232;-73
2021/06/30 08:02:53;;;;;;;18.60;10.05;;;15.90;99.90;;;;;;5087135;28;20230;-75
2021/06/30 08:05:20;;;;;;;22.08;9.60;;;15.80;99.90;;;;;;5080495;28;20190;-72
2021/06/30 08:07:47;;;;;;;19.00;9.60;;;15.90;99.90;;;;;;5086540;28;20206;-74
2021/06/30 08:10:14;;;;;;;19.27;10.00;;;15.90;99.90;;;;;;5084506;28;20680;-74
2021/06/30 08:12:41;;;;;;;22.38;10.52;;;15.90;99.90;;;;;;5080995;28;20209;-74
2021/06/30 08:15:09;;;;;;;18.02;9.52;;;15.90;99.90;;;;;;5083341;28;20204;-78
2021/06/30 08:17:38;;;;;;;21.38;10.15;;;15.90;99.90;;;;;;5087183;28;20201;-72
2021/06/30 08:20:07;;;;;;;16.83;10.25;;;15.90;99.90;;;;;;5082035;28;20214;-74
2021/06/30 08:22:34;;;;;;;15.27;9.00;;;15.90;99.90;;;;;;5086060;28;20779;-73
2021/06/30 08:25:01;;;;;;;19.08;9.70;;;15.90;99.90;;;;;;5085232;28;20725;-77
2021/06/30 08:27:28;;;;;;;15.32;9.02;;;15.90;99.90;;;;;;5085177;28;20210;-74
2021/06/30 08:29:56;;;;;;;18.15;8.80;;;15.90;99.90;;;;;;5079886;28;20268;-75
2021/06/30 08:32:25;;;;;;;13.85;8.77;;;15.90;99.90;;;;;;5085474;28;20251;-75
2021/06/30 08:34:53;;;;;;;13.52;8.60;;;16.00;99.90;;;;;;5082587;28;20216;-74
2021/06/30 08:37:21;;;;;;;14.35;9.10;;;16.00;99.90;;;;;;5085091;28;20247;-74
2021/06/30 08:39:50;;;;;;;19.40;8.82;;;16.00;99.90;;;;;;5083223;28;20222;-75
2021/06/30 08:42:17;;;;;;;14.18;8.50;;;16.00;99.90;;;;;;5087430;28;20221;-73
2021/06/30 08:44:45;;;;;;;13.23;8.82;;;16.00;99.90;;;;;;5086791;28;20258;-74
2021/06/30 08:47:12;;;;;;;18.10;9.05;;;16.10;99.90;;;;;;5087437;28;20224;-75
2021/06/30 08:49:42;;;;;;;16.73;9.38;;;16.10;99.90;;;;;;5085128;28;20333;-75
2021/06/30 08:52:12;;;;;;;16.45;8.80;;;16.20;99.90;;;;;;5084874;28;20259;-74
2021/06/30 08:54:41;;;;;;;13.23;9.15;;;16.20;99.90;;;;;;5087641;28;20201;-73
2021/06/30 08:57:09;;;;;;;16.70;8.07;;;16.20;99.90;;;;;;5085044;28;20197;-74
2021/06/30 08:59:36;;;;;;;15.05;8.27;;;16.30;99.90;;;;;;5088690;28;20258;-75
2021/06/30 09:02:04;;;;;;;14.93;8.35;;;16.30;99.90;;;;;;5085781;28;20654;-75
2021/06/30 09:04:32;;;;;;;12.48;8.00;;;16.30;99.90;;;;;;5085403;28;20208;-74
2021/06/30 09:06:59;;;;;;;15.18;7.15;;;16.40;99.90;;;;;;5081064;28;20202;-75
2021/06/30 09:09:27;;;;;;;11.60;6.35;;;16.40;99.90;;;;;;5082952;28;20243;-73
2021/06/30 09:11:58;;;;;;;11.25;6.35;;;16.40;99.90;;;;;;5083297;28;20202;-76
2021/06/30 09:14:30;;;;;;;12.15;6.07;;;16.50;99.90;;;;;;5085486;28;20285;-74
2021/06/30 09:17:06;;;;;;;11.75;6.70;;;16.50;99.90;;;;;;5081102;28;20206;-75
2021/06/30 09:19:53;;;;;;;10.77;6.28;;;16.50;99.90;;;;;;5085629;28;20534;-75
2021/06/30 09:22:22;;;;;;;12.55;6.28;;;16.50;99.90;;;;;;5084764;28;20735;-74
2021/06/30 09:24:52;;;;;;;10.52;6.65;;;16.50;99.90;;;;;;5083027;28;20263;-74
2021/06/30 09:27:20;;;;;;;12.07;6.45;;;16.50;99.90;;;;;;5086446;28;20205;-75
2021/06/30 09:29:47;;;;;;;9.30;5.22;;;16.60;99.90;;;;;;5083784;28;20314;-75
2021/06/30 09:32:17;;;;;;;9.32;5.63;;;16.60;99.90;;;;;;5089067;28;20198;-75
2021/06/30 09:34:44;;;;;;;16.13;6.40;;;16.60;99.90;;;;;;5084368;28;20667;-74
2021/06/30 09:37:11;;;;;;;8.38;6.05;;;16.60;99.90;;;;;;5088269;28;20209;-74
2021/06/30 09:39:39;;;;;;;10.43;5.95;;;16.60;99.90;;;;;;5086923;28;20206;-76
2021/06/30 09:42:09;;;;;;;9.65;6.00;;;16.70;99.90;;;;;;5086659;28;20356;-75
2021/06/30 09:44:37;;;;;;;7.68;5.18;;;16.70;99.90;;;;;;5089147;28;20210;-74
2021/06/30 09:47:06;;;;;;;10.52;5.65;;;16.70;99.90;;;;;;5091200;28;20736;-74
2021/06/30 09:49:36;;;;;;;9.15;5.15;;;16.70;99.90;;;;;;5086739;28;20217;-74
2021/06/30 09:52:09;;;;;;;12.57;5.82;;;16.80;99.90;;;;;;5083383;28;20198;-73
2021/06/30 09:54:37;;;;;;;12.75;5.50;;;16.80;99.90;;;;;;5081153;28;20605;-75
2021/06/30 09:57:07;;;;;;;8.77;5.47;;;16.90;99.90;;;;;;5087956;28;20205;-74
2021/06/30 09:59:37;;;;;;;10.80;5.68;;;16.90;99.90;;;;;;5083725;28;20276;-75
2021/06/30 10:02:07;;;;;;;10.23;5.53;;;16.90;99.90;;;;;;5086734;28;20213;-76
2021/06/30 10:04:36;;;;;;;10.02;5.30;;;17.10;99.90;;;;;;5086208;28;20559;-73
2021/06/30 10:07:06;;;;;;;16.05;6.45;;;17.10;99.90;;;;;;5087575;28;20213;-72
2021/06/30 10:09:33;;;;;;;12.18;6.05;;;17.20;99.90;;;;;;5082489;28;20263;-74
2021/06/30 10:12:10;;;;;;;22.05;7.20;;;17.20;99.90;;;;;;5088782;28;20198;-74
2021/06/30 10:14:40;;;;;;;13.88;5.72;;;17.30;99.90;;;;;;5088465;28;20724;-71
2021/06/30 10:17:08;;;;;;;14.45;6.35;;;17.30;99.90;;;;;;5085361;28;20195;-76
2021/06/30 10:19:36;;;;;;;15.45;5.93;;;17.30;99.90;;;;;;5082468;28;20206;-74
2021/06/30 10:22:05;;;;;;;10.05;5.03;;;17.30;99.90;;;;;;5084389;28;20222;-74
2021/06/30 10:24:32;;;;;;;12.52;5.25;;;17.40;99.90;;;;;;5084323;28;20202;-74
2021/06/30 10:26:59;;;;;;;12.05;5.43;;;17.40;99.90;;;;;;5085584;28;20201;-73
2021/06/30 10:29:28;;;;;;;12.32;5.30;;;17.40;99.90;;;;;;5085977;28;20255;-76
2021/06/30 10:32:06;;;;;;;8.93;5.30;;;17.40;99.90;;;;;;5084924;28;20198;-74
2021/06/30 10:34:37;;;;;;;10.50;5.35;;;17.50;99.90;;;;;;5087927;28;20620;-75
2021/06/30 10:37:17;;;;;;;11.27;5.95;;;17.40;99.90;;;;;;5086442;28;20560;-75
2021/06/30 10:39:46;;;;;;;15.85;6.53;;;17.40;99.90;;;;;;5087671;28;20872;-75
2021/06/30 10:42:23;;;;;;;9.55;5.60;;;17.40;99.90;;;;;;5083842;28;20222;-71
2021/06/30 10:44:52;;;;;;;19.50;6.72;;;17.30;99.90;;;;;;5088181;28;20205;-72
2021/06/30 10:47:41;;;;;;;13.23;6.65;;;17.30;99.90;;;;;;5084437;28;20281;-73
2021/06/30 10:50:37;;;;;;;13.63;6.43;;;17.30;99.90;;;;;;5087203;28;20194;-73
2021/06/30 10:53:36;;;;;;;20.40;7.28;;;17.20;99.90;;;;;;5061761;28;20233;-73
2021/06/30 10:56:11;;;;;;;11.68;6.30;;;17.20;99.90;;;;;;5088087;28;20197;-72
2021/06/30 10:58:39;;;;;;;14.18;6.65;;;17.20;99.90;;;;;;5082827;28;20209;-73
2021/06/30 11:01:12;;;;;;;10.32;6.68;;;17.20;99.90;;;;;;5082701;28;20202;-72
2021/06/30 11:03:46;;;;;;;10.98;6.18;;;17.20;99.90;;;;;;5087693;28;20247;-73
2021/06/30 11:06:35;;;;;;;13.32;5.70;;;17.10;99.90;;;;;;5083599;28;20201;-71
2021/06/30 11:09:06;;;;;;;7.80;4.60;;;17.10;99.90;;;;;;5085028;28;20658;-71
2021/06/30 11:11:55;;;;;;;7.82;5.18;;;17.10;99.90;;;;;;5084597;28;20201;-73
2021/06/30 11:14:41;;;;;;;9.60;5.82;;;17.00;99.90;;;;;;5082466;28;20280;-74
2021/06/30 11:17:08;;;;;;;12.15;7.10;;;17.00;99.90;;;;;;5080507;28;20206;-73
2021/06/30 11:19:41;;;;;;;18.33;7.35;;;17.00;99.90;;;;;;5080366;28;20213;-72
2021/06/30 11:22:21;;;;;;;13.18;6.57;;;17.00;99.90;;;;;;5086883;28;20283;-73
2021/06/30 11:24:49;;;;;;;13.98;7.13;;;17.00;99.90;;;;;;5084512;28;20286;-71
2021/06/30 11:27:45;;;;;;;10.23;7.15;;;17.00;99.90;;;;;;5083494;28;20202;-71
2021/06/30 11:30:28;;;;;;;12.50;7.47;;;17.10;99.90;;;;;;5084471;28;20766;-71
2021/06/30 11:32:55;;;;;;;15.52;7.85;;;17.00;99.90;;;;;;5084683;28;20927;-70
2021/06/30 11:35:34;;;;;;;12.68;8.43;;;17.10;99.90;;;;;;5083763;28;20198;-70
2021/06/30 11:38:13;;;;;;;18.88;9.73;;;17.10;99.90;;;;;;5084058;28;20550;-71
2021/06/30 11:40:52;;;;;;;17.83;8.45;;;17.20;99.90;;;;;;5083502;28;20217;-73
2021/06/30 11:43:23;;;;;;;12.57;7.28;;;17.20;99.90;;;;;;5081991;28;20580;-72
2021/06/30 11:45:55;;;;;;;10.98;6.90;;;17.20;99.90;;;;;;5080991;28;20229;-71
2021/06/30 11:48:22;;;;;;;12.02;6.78;;;17.10;99.90;;;;;;5085274;28;21018;-75
2021/06/30 11:50:56;;;;;;;14.35;6.55;;;17.20;99.90;;;;;;5079170;28;20206;-71
2021/06/30 11:53:45;;;;;;;14.10;6.40;;;17.10;99.90;;;;;;5084944;28;20288;-74
2021/06/30 11:56:14;;;;;;;10.93;5.90;;;17.10;99.90;;;;;;5084932;28;20570;-73
2021/06/30 11:58:49;;;;;;;10.50;5.97;;;17.10;99.90;;;;;;5087888;28;20202;-73
2021/06/30 12:01:21;;;;;;;10.77;5.88;;;17.10;99.90;;;;;;5083004;28;20731;-73
2021/06/30 12:03:48;;;;;;;10.52;5.95;;;17.00;99.90;;;;;;5086323;28;20198;-71
2021/06/30 12:06:24;;;;;;;13.93;6.00;;;17.00;99.90;;;;;;5080912;28;20207;-71
2021/06/30 12:09:12;;;;;;;8.02;6.10;;;17.00;99.90;;;;;;5083268;28;20262;-72
2021/06/30 12:11:40;;;;;;;11.38;6.38;;;17.00;99.90;;;;;;5082187;28;20251;-72
2021/06/30 12:14:09;;;;;;;16.60;7.45;;;17.00;99.90;;;;;;5082536;28;20221;-72
2021/06/30 12:16:55;;;;;;;15.73;7.05;;;17.00;99.90;;;;;;5084674;28;20738;-70
2021/06/30 12:19:35;;;;;;;12.85;7.30;;;17.00;99.90;;;;;;5082522;28;20670;-72
2021/06/30 12:22:17;;;;;;;15.13;7.72;;;16.90;99.90;;;;;;5081538;28;20617;-71
2021/06/30 12:24:44;;;;;;;16.23;7.00;;;17.00;99.90;;;;;;5082185;28;20665;-72
2021/06/30 12:27:13;;;;;;;11.73;7.10;;;17.00;99.90;;;;;;5082902;28;20264;-70
2021/06/30 12:29:40;;;;;;;15.73;7.72;;;17.00;99.90;;;;;;5087021;28;20708;-72
2021/06/30 12:32:12;;;;;;;13.05;7.90;;;17.00;99.90;;;;;;5083510;28;20259;-71
2021/06/30 12:34:39;;;;;;;16.25;7.72;;;17.00;99.90;;;;;;5089925;28;20250;-71
2021/06/30 12:37:07;;;;;;;17.88;7.75;;;17.00;99.90;;;;;;5085707;28;20575;-73
2021/06/30 12:39:36;;;;;;;12.65;7.90;;;17.00;99.90;;;;;;5084189;28;20220;-73
2021/06/30 12:42:05;;;;;;;16.15;7.68;;;17.00;99.90;;;;;;5083752;28;20221;-73
2021/06/30 12:44:53;;;;;;;16.20;7.90;;;17.00;99.90;;;;;;5084314;28;20293;-69
2021/06/30 12:47:20;;;;;;;12.35;7.95;;;17.10;99.90;;;;;;5079865;28;20248;-71
2021/06/30 12:49:58;;;;;;;15.90;8.60;;;17.10;99.90;;;;;;5079146;28;20629;-71
2021/06/30 12:52:26;;;;;;;12.65;7.47;;;17.10;99.90;;;;;;5081195;28;20190;-71
2021/06/30 12:55:05;;;;;;;14.88;7.90;;;17.10;99.90;;;;;;5081566;28;20669;-73